createdAt,value
2019-04-10T00:01:19.445Z,51.20
2019-04-10T00:03:50.549Z,50.41
2019-04-10T00:06:21.721Z,50.49
2019-04-10T00:08:52.876Z,51.32
2019-04-10T00:11:24.830Z,51.19
2019-04-10T00:13:55.782Z,51.43
2019-04-10T00:16:27.822Z,51.38
2019-04-10T00:18:59.191Z,51.72
2019-04-10T00:21:31.334Z,51.68
2019-04-10T00:24:02.457Z,51.60
2019-04-10T00:26:34.060Z,51.69
2019-04-10T00:29:05.737Z,51.91
2019-04-10T00:31:36.649Z,51.27
2019-04-10T00:34:07.561Z,51.31
2019-04-10T00:36:39.414Z,51.46
2019-04-10T00:39:10.564Z,51.48
2019-04-10T00:41:41.559Z,51.99
2019-04-10T00:44:13.502Z,52.46
2019-04-10T00:46:44.455Z,51.71
2019-04-10T00:49:15.566Z,51.51
2019-04-10T00:51:47.781Z,51.71
2019-04-10T00:54:22.053Z,51.98
2019-04-10T00:56:53.374Z,52.05
2019-04-10T00:59:24.277Z,52.91
2019-04-10T01:01:56.210Z,53.00
2019-04-10T01:04:27.330Z,52.44
2019-04-10T01:06:58.229Z,52.56
2019-04-10T01:09:29.497Z,53.40
2019-04-10T01:12:01.808Z,53.07
2019-04-10T01:14:34.260Z,54.00
2019-04-10T01:17:06.224Z,53.97
2019-04-10T01:19:37.745Z,53.89
2019-04-10T01:22:09.026Z,53.88
2019-04-10T01:24:39.901Z,54.16
2019-04-10T01:27:11.780Z,53.76
2019-04-10T01:29:43.951Z,53.81
2019-04-10T01:32:15.424Z,53.22
2019-04-10T01:34:46.544Z,53.78
2019-04-10T01:37:18.758Z,53.49
2019-04-10T01:39:50.648Z,54.15
2019-04-10T01:42:22.792Z,54.46
2019-04-10T01:44:55.221Z,54.32
2019-04-10T01:47:26.911Z,54.07
2019-04-10T01:49:58.103Z,53.59
2019-04-10T01:52:31.197Z,53.91
2019-04-10T01:55:16.014Z,53.21
2019-04-10T01:57:35.323Z,54.45
2019-04-10T02:00:06.818Z,54.29
2019-04-10T02:02:45.451Z,54.97
2019-04-10T02:05:16.694Z,54.57
2019-04-10T02:07:59.334Z,54.16
2019-04-10T02:10:20.800Z,54.54
2019-04-10T02:12:52.636Z,53.92
2019-04-10T02:15:23.617Z,54.32
2019-04-10T02:17:55.101Z,54.14
2019-04-10T02:20:27.077Z,54.30
2019-04-10T02:22:58.465Z,54.60
2019-04-10T02:25:30.607Z,54.50
2019-04-10T02:28:02.701Z,54.97
2019-04-10T02:30:34.741Z,54.66
2019-04-10T02:33:08.407Z,54.47
2019-04-10T02:35:40.033Z,54.45
2019-04-10T02:38:34.157Z,55.25
2019-04-10T02:40:45.568Z,54.69
2019-04-10T02:43:16.775Z,54.75
2019-04-10T02:45:49.390Z,55.18
2019-04-10T02:48:20.300Z,54.92
2019-04-10T02:50:51.543Z,54.90
2019-04-10T02:53:23.317Z,55.90
2019-04-10T02:55:55.777Z,55.91
2019-04-10T02:58:26.761Z,55.12
2019-04-10T03:00:59.060Z,55.49
2019-04-10T03:03:30.765Z,56.04
2019-04-10T03:06:02.603Z,55.77
2019-04-10T03:08:44.547Z,56.94
2019-04-10T03:11:10.951Z,56.55
2019-04-10T03:13:39.621Z,57.18
2019-04-10T03:16:11.762Z,56.84
2019-04-10T03:18:43.194Z,56.81
2019-04-10T03:21:15.367Z,56.54
2019-04-10T03:23:46.145Z,56.89
2019-04-10T03:26:17.368Z,56.48
2019-04-10T03:28:49.305Z,55.86
2019-04-10T03:31:23.022Z,56.67
2019-04-10T03:34:16.924Z,56.72
2019-04-10T03:36:49.045Z,56.70
2019-04-10T03:39:21.619Z,57.23
2019-04-10T03:41:52.743Z,57.11
2019-04-10T03:44:24.911Z,56.71
2019-04-10T03:46:56.137Z,57.35
2019-04-10T03:49:27.639Z,58.20
2019-04-10T03:51:58.533Z,57.98
2019-04-10T03:54:30.221Z,58.35
2019-04-10T03:57:01.022Z,58.44
2019-04-10T03:59:32.670Z,58.90
2019-04-10T04:02:03.622Z,58.99
2019-04-10T04:04:34.553Z,58.38
2019-04-10T04:07:05.437Z,58.48
2019-04-10T04:09:37.733Z,58.71
2019-04-10T04:12:09.221Z,58.66
2019-04-10T04:14:40.840Z,59.42
2019-04-10T04:17:12.023Z,59.55
2019-04-10T04:19:43.160Z,59.20
2019-04-10T04:22:14.624Z,58.31
2019-04-10T04:24:46.174Z,58.86
2019-04-10T04:27:17.552Z,59.08
2019-04-10T04:29:49.890Z,58.88
2019-04-10T04:32:21.762Z,59.39
2019-04-10T04:34:52.868Z,59.56
2019-04-10T04:37:24.014Z,59.51
2019-04-10T04:39:56.295Z,65.64
2019-04-10T04:42:28.756Z,56.95
2019-04-10T04:45:00.775Z,56.95
2019-04-10T04:47:36.451Z,53.09
2019-04-10T04:50:07.756Z,54.69
2019-04-10T04:52:41.114Z,53.03
2019-04-10T04:55:12.326Z,52.74
2019-04-10T04:57:43.028Z,52.04
2019-04-10T05:00:15.167Z,52.04
2019-04-10T05:02:47.068Z,52.77
2019-04-10T05:05:19.850Z,52.58
2019-04-10T05:07:59.330Z,59.00
2019-04-10T05:10:25.132Z,50.54
2019-04-10T05:15:37.305Z,55.68
2019-04-10T05:18:08.215Z,50.53
2019-04-10T05:20:45.158Z,58.81
2019-04-10T05:23:12.425Z,51.93
2019-04-10T05:25:43.476Z,51.93
2019-04-10T05:28:15.219Z,50.17
2019-04-10T05:30:47.468Z,53.20
2019-04-10T05:33:18.954Z,54.75
2019-04-10T05:35:50.769Z,51.31
2019-04-10T05:38:22.590Z,51.71
2019-04-10T05:40:55.184Z,54.76
2019-04-10T05:43:28.167Z,53.37
2019-04-10T05:45:59.402Z,54.00
2019-04-10T05:48:31.531Z,52.28
2019-04-10T05:51:05.630Z,52.67
2019-04-10T05:53:35.083Z,57.02
2019-04-10T05:56:06.074Z,53.42
2019-04-10T05:58:37.199Z,51.39
2019-04-10T06:01:09.493Z,52.08
2019-04-10T06:03:40.823Z,50.36
2019-04-10T06:06:12.522Z,53.19
2019-04-10T06:08:44.701Z,51.86
2019-04-10T06:11:15.527Z,50.57
2019-04-10T06:13:46.665Z,51.34
2019-04-10T06:16:18.034Z,48.19
2019-04-10T06:18:48.948Z,49.45
2019-04-10T06:21:21.067Z,54.00
2019-04-10T06:23:52.213Z,51.43
2019-04-10T06:26:23.693Z,52.30
2019-04-10T06:28:55.271Z,51.61
2019-04-10T06:31:26.164Z,53.28
2019-04-10T06:33:58.310Z,50.03
2019-04-10T06:36:29.721Z,51.21
2019-04-10T06:39:00.582Z,54.04
2019-04-10T06:41:33.003Z,49.61
2019-04-10T06:44:03.838Z,50.19
2019-04-10T06:46:37.546Z,54.47
2019-04-10T06:49:09.157Z,56.16
2019-04-10T06:51:41.051Z,57.30
2019-04-10T06:54:12.927Z,55.25
2019-04-10T06:56:45.072Z,53.69
2019-04-10T06:59:16.638Z,53.53
2019-04-10T07:01:52.604Z,52.80
2019-04-10T07:04:24.046Z,54.82
2019-04-10T07:07:00.108Z,51.52
2019-04-10T07:09:27.052Z,51.94
2019-04-10T07:12:01.488Z,52.70
2019-04-10T07:14:35.475Z,50.11
2019-04-10T07:17:07.073Z,52.61
2019-04-10T07:19:37.765Z,51.64
2019-04-10T07:22:12.426Z,49.90
2019-04-10T07:24:42.628Z,49.43
2019-04-10T07:27:14.037Z,47.35
2019-04-10T07:29:45.176Z,48.76
2019-04-10T07:32:16.881Z,48.33
2019-04-10T07:34:48.738Z,49.60
2019-04-10T07:37:22.490Z,45.89
2019-04-10T07:39:52.999Z,48.41
2019-04-10T07:42:29.414Z,46.58
2019-04-10T07:44:57.776Z,47.68
2019-04-10T07:47:29.235Z,47.74
2019-04-10T07:50:02.127Z,49.24
2019-04-10T07:52:33.023Z,47.74
2019-04-10T07:55:04.501Z,48.01
2019-04-10T07:57:36.391Z,46.03
2019-04-10T08:00:09.071Z,47.89
2019-04-10T08:02:40.560Z,47.33
2019-04-10T08:05:12.288Z,47.43
2019-04-10T08:07:45.150Z,47.14
2019-04-10T08:10:20.184Z,46.17
2019-04-10T08:12:54.210Z,47.53
2019-04-10T08:15:25.190Z,47.37
2019-04-10T08:17:58.298Z,43.97
2019-04-10T08:20:30.666Z,48.13
2019-04-10T08:23:01.664Z,46.01
2019-04-10T08:25:33.759Z,44.20
2019-04-10T08:28:04.621Z,44.41
2019-04-10T08:30:36.230Z,47.20
2019-04-10T08:33:07.778Z,45.70
2019-04-10T08:35:39.862Z,43.61
2019-04-10T08:38:13.037Z,45.15
2019-04-10T08:40:44.492Z,46.18
2019-04-10T08:43:15.841Z,43.00
2019-04-10T08:45:51.042Z,45.88
2019-04-10T08:48:19.327Z,44.67
2019-04-10T08:50:50.738Z,43.69
2019-04-10T08:53:22.211Z,44.14
2019-04-10T08:55:54.662Z,43.01
2019-04-10T08:58:25.563Z,43.49
2019-04-10T09:00:56.617Z,44.41
2019-04-10T09:03:27.745Z,43.28
2019-04-10T09:05:58.831Z,44.10
2019-04-10T09:08:29.959Z,43.08
2019-04-10T09:11:01.041Z,44.46
2019-04-10T09:13:32.680Z,42.26
2019-04-10T09:16:04.547Z,43.64
2019-04-10T09:18:37.218Z,43.69
2019-04-10T09:21:08.126Z,42.64
2019-04-10T09:23:46.725Z,41.67
2019-04-10T09:26:13.366Z,42.28
2019-04-10T09:28:44.833Z,45.65
2019-04-10T09:31:15.993Z,44.87
2019-04-10T09:33:47.409Z,42.86
2019-04-10T09:36:19.765Z,41.78
2019-04-10T09:38:52.789Z,44.61
2019-04-10T09:41:25.890Z,38.86
2019-04-10T09:43:58.181Z,40.80
2019-04-10T09:46:29.170Z,40.25
2019-04-10T09:49:00.516Z,39.51
2019-04-10T09:51:34.157Z,41.73
2019-04-10T09:54:05.642Z,39.60
2019-04-10T09:56:36.698Z,41.54
2019-04-10T09:59:07.636Z,41.41
2019-04-10T10:01:38.466Z,44.22
2019-04-10T10:04:09.275Z,43.41
2019-04-10T10:06:40.118Z,42.07
2019-04-10T10:09:10.968Z,39.02
2019-04-10T10:11:42.738Z,44.23
2019-04-10T10:14:14.539Z,41.65
2019-04-10T10:16:46.313Z,41.11
2019-04-10T10:19:18.278Z,44.48
2019-04-10T10:21:50.463Z,42.99
2019-04-10T10:24:22.278Z,44.86
2019-04-10T10:26:53.600Z,40.23
2019-04-10T10:29:25.981Z,40.06
2019-04-10T10:31:57.015Z,40.72
2019-04-10T10:34:28.298Z,40.07
2019-04-10T10:37:00.100Z,38.76
2019-04-10T10:39:31.002Z,41.88
2019-04-10T10:42:03.235Z,37.88
2019-04-10T10:44:34.465Z,43.67
2019-04-10T10:47:06.293Z,40.76
2019-04-10T10:49:37.239Z,40.61
2019-04-10T10:52:09.064Z,40.32
2019-04-10T10:54:41.074Z,39.00
2019-04-10T10:57:13.158Z,37.86
2019-04-10T10:59:44.654Z,37.68
2019-04-10T11:02:15.506Z,37.46
2019-04-10T11:04:47.420Z,38.30
2019-04-10T11:07:18.697Z,34.97
2019-04-10T11:09:50.376Z,40.27
2019-04-10T11:12:22.012Z,36.94
2019-04-10T11:14:53.811Z,37.95
2019-04-10T11:17:25.504Z,38.60
2019-04-10T11:19:56.769Z,33.44
2019-04-10T11:22:27.671Z,34.52
2019-04-10T11:24:59.700Z,35.58
2019-04-10T11:27:31.770Z,37.02
2019-04-10T11:30:03.534Z,39.55
2019-04-10T11:32:36.944Z,38.15
2019-04-10T11:35:08.876Z,38.74
2019-04-10T11:37:44.577Z,41.98
2019-04-10T11:40:16.341Z,42.19
2019-04-10T11:42:46.792Z,39.14
2019-04-10T11:45:19.161Z,39.55
2019-04-10T11:47:51.257Z,38.33
2019-04-10T11:50:24.668Z,39.62
2019-04-10T11:52:56.744Z,37.24
2019-04-10T11:55:28.250Z,37.49
2019-04-10T11:58:00.168Z,38.00
2019-04-10T12:03:15.206Z,35.09
2019-04-10T12:05:48.032Z,37.70
2019-04-10T12:08:44.893Z,34.20
2019-04-10T12:11:10.901Z,37.23
2019-04-10T12:13:24.840Z,32.75
2019-04-10T12:15:56.693Z,32.61
2019-04-10T12:18:28.509Z,36.12
2019-04-10T12:20:59.759Z,36.72
2019-04-10T12:23:30.580Z,36.42
2019-04-10T12:26:01.757Z,36.22
2019-04-10T12:28:33.926Z,39.02
2019-04-10T12:31:06.007Z,35.65
2019-04-10T12:33:38.003Z,37.35
2019-04-10T12:36:10.704Z,38.07
2019-04-10T12:38:41.952Z,40.24
2019-04-10T12:41:12.792Z,36.60
2019-04-10T12:43:43.726Z,34.54
2019-04-10T12:46:14.989Z,33.57
2019-04-10T12:48:47.213Z,32.30
2019-04-10T12:51:19.315Z,32.37
2019-04-10T12:53:50.520Z,33.16
2019-04-10T12:56:22.009Z,32.76
2019-04-10T12:58:53.214Z,32.53
2019-04-10T13:01:24.761Z,36.08
2019-04-10T13:03:55.777Z,34.13
2019-04-10T13:06:26.564Z,32.44
2019-04-10T13:09:07.121Z,34.11
2019-04-10T13:11:30.806Z,31.06
2019-04-10T13:14:02.197Z,35.05
2019-04-10T13:16:34.123Z,32.15
2019-04-10T13:19:05.264Z,32.81
2019-04-10T13:21:36.920Z,35.16
2019-04-10T13:24:09.023Z,33.78
2019-04-10T13:26:40.051Z,32.09
2019-04-10T13:29:11.993Z,34.50
2019-04-10T13:31:42.868Z,34.48
2019-04-10T13:34:13.822Z,33.85
2019-04-10T13:36:46.041Z,32.09
2019-04-10T13:39:18.902Z,31.49
2019-04-10T13:41:50.452Z,31.71
2019-04-10T13:44:22.360Z,30.08
2019-04-10T13:46:53.887Z,35.08
2019-04-10T13:49:24.724Z,30.18
2019-04-10T13:51:56.203Z,30.97
2019-04-10T13:54:27.076Z,30.98
2019-04-10T13:56:57.953Z,35.38
2019-04-10T13:59:29.017Z,37.24
2019-04-10T14:02:00.552Z,36.54
2019-04-10T14:04:31.889Z,30.73
2019-04-10T14:07:04.358Z,31.08
2019-04-10T14:09:43.192Z,33.21
2019-04-10T14:12:08.036Z,31.56
2019-04-10T14:14:38.793Z,33.11
2019-04-10T14:17:09.805Z,34.83
2019-04-10T14:19:41.520Z,33.75
2019-04-10T14:22:13.472Z,34.14
2019-04-10T14:24:47.689Z,31.10
2019-04-10T14:27:22.847Z,31.44
2019-04-10T14:29:54.569Z,31.43
2019-04-10T14:32:31.301Z,31.08
2019-04-10T14:35:03.150Z,30.63
2019-04-10T14:37:34.090Z,32.77
2019-04-10T14:40:06.939Z,36.15
2019-04-10T14:42:38.500Z,28.71
2019-04-10T14:45:11.029Z,29.47
2019-04-10T14:47:43.375Z,28.88
2019-04-10T14:50:15.636Z,28.54
2019-04-10T14:52:47.534Z,31.33
2019-04-10T14:55:20.544Z,31.04
2019-04-10T14:57:53.010Z,31.04
2019-04-10T15:00:32.893Z,31.26
2019-04-10T15:03:04.404Z,32.13
2019-04-10T15:05:45.399Z,28.07
2019-04-10T15:08:09.249Z,31.95
2019-04-10T15:10:40.177Z,31.35
2019-04-10T15:13:16.282Z,30.31
2019-04-10T15:15:44.919Z,36.97
2019-04-10T15:18:15.807Z,30.83
2019-04-10T15:20:47.272Z,36.59
2019-04-10T15:23:20.274Z,29.45
2019-04-10T15:25:51.296Z,34.37
2019-04-10T15:28:23.215Z,29.18
2019-04-10T15:30:55.056Z,32.19
2019-04-10T15:33:26.694Z,30.31
2019-04-10T15:35:59.678Z,30.33
2019-04-10T15:38:30.681Z,30.83
2019-04-10T15:41:02.958Z,30.96
2019-04-10T15:43:35.092Z,30.35
2019-04-10T15:46:05.959Z,32.35
2019-04-10T15:48:37.687Z,38.59
2019-04-10T15:51:08.848Z,29.96
2019-04-10T15:53:41.045Z,37.00
2019-04-10T15:56:12.029Z,33.24
2019-04-10T15:58:43.809Z,32.12
2019-04-10T16:01:18.578Z,32.23
2019-04-10T16:03:50.588Z,38.25
2019-04-10T16:06:22.924Z,36.11
2019-04-10T16:08:54.230Z,30.87
2019-04-10T16:11:36.218Z,30.02
2019-04-10T16:14:18.746Z,29.98
2019-04-10T16:16:57.032Z,32.45
2019-04-10T16:19:47.088Z,30.59
2019-04-10T16:22:24.261Z,31.92
2019-04-10T16:24:58.016Z,30.77
2019-04-10T16:27:29.002Z,35.01
2019-04-10T16:30:03.021Z,31.73
2019-04-10T16:32:34.850Z,34.39
2019-04-10T16:35:07.180Z,30.34
2019-04-10T16:37:38.455Z,31.22
2019-04-10T16:40:10.459Z,31.72
2019-04-10T16:42:43.646Z,32.21
2019-04-10T16:45:17.528Z,34.53
2019-04-10T16:47:48.709Z,30.91
2019-04-10T16:50:19.702Z,36.21
2019-04-10T16:52:51.458Z,32.96
2019-04-10T16:55:22.788Z,36.50
2019-04-10T16:57:53.632Z,34.64
2019-04-10T17:00:24.585Z,32.57
2019-04-10T17:02:56.619Z,34.98
2019-04-10T17:05:28.248Z,36.20
2019-04-10T17:08:01.901Z,32.35
2019-04-10T17:10:32.777Z,32.88
2019-04-10T17:13:04.455Z,33.12
2019-04-10T17:15:36.347Z,34.01
2019-04-10T17:18:08.682Z,34.07
2019-04-10T17:20:40.415Z,33.76
2019-04-10T17:23:12.289Z,36.04
2019-04-10T17:25:44.353Z,34.16
2019-04-10T17:28:16.416Z,36.97
2019-04-10T17:30:47.661Z,34.31
2019-04-10T17:33:18.693Z,34.31
2019-04-10T17:35:49.639Z,32.53
2019-04-10T17:38:20.557Z,36.83
2019-04-10T17:40:55.562Z,33.37
2019-04-10T17:43:26.981Z,37.43
2019-04-10T17:45:58.615Z,35.61
2019-04-10T17:48:31.218Z,36.71
2019-04-10T17:51:03.897Z,39.39
2019-04-10T17:53:35.750Z,35.69
2019-04-10T17:56:06.694Z,35.56
2019-04-10T17:58:37.946Z,41.88
2019-04-10T18:01:12.612Z,37.86
2019-04-10T18:03:51.624Z,37.18
2019-04-10T18:06:17.343Z,37.95
2019-04-10T18:08:49.335Z,40.79
2019-04-10T18:11:20.467Z,37.74
2019-04-10T18:13:53.745Z,38.58
2019-04-10T18:16:25.632Z,35.93
2019-04-10T18:18:57.021Z,41.25
2019-04-10T18:21:28.781Z,36.37
2019-04-10T18:24:00.061Z,36.87
2019-04-10T18:26:31.932Z,39.25
2019-04-10T18:29:02.873Z,39.61
2019-04-10T18:31:34.762Z,36.90
2019-04-10T18:34:09.657Z,38.17
2019-04-10T18:36:38.658Z,36.06
2019-04-10T18:39:15.452Z,35.20
2019-04-10T18:41:47.089Z,40.12
2019-04-10T18:44:17.953Z,40.28
2019-04-10T18:46:48.943Z,44.84
2019-04-10T18:49:21.082Z,40.26
2019-04-10T18:51:52.102Z,43.36
2019-04-10T18:54:23.172Z,41.91
2019-04-10T18:56:54.123Z,42.65
2019-04-10T18:59:45.309Z,41.15
2019-04-10T19:02:34.900Z,41.12
2019-04-10T19:05:16.128Z,39.74
2019-04-10T19:07:48.227Z,41.07
2019-04-10T19:10:19.933Z,43.40
2019-04-10T19:12:51.135Z,43.59
2019-04-10T19:15:24.931Z,44.45
2019-04-10T19:17:55.851Z,38.46
2019-04-10T19:20:27.046Z,42.72
2019-04-10T19:22:59.134Z,44.42
2019-04-10T19:25:30.337Z,42.69
2019-04-10T19:28:02.406Z,38.45
2019-04-10T19:30:37.415Z,43.44
2019-04-10T19:33:08.640Z,41.81
2019-04-10T19:35:39.537Z,42.74
2019-04-10T19:38:11.686Z,43.07
2019-04-10T19:40:43.792Z,44.69
2019-04-10T19:43:16.009Z,40.64
2019-04-10T19:45:48.104Z,40.59
2019-04-10T19:48:21.875Z,43.93
2019-04-10T19:50:53.704Z,43.59
2019-04-10T19:53:25.117Z,41.84
2019-04-10T19:55:56.119Z,41.13
2019-04-10T19:58:30.206Z,42.48
2019-04-10T20:01:01.186Z,45.72
2019-04-10T20:03:32.740Z,45.39
2019-04-10T20:06:03.981Z,42.04
2019-04-10T20:08:35.635Z,44.23
2019-04-10T20:11:08.780Z,40.12
2019-04-10T20:13:40.896Z,47.27
2019-04-10T20:16:11.684Z,43.33
2019-04-10T20:18:43.238Z,42.81
2019-04-10T20:21:15.521Z,44.23
2019-04-10T20:23:46.563Z,45.33
2019-04-10T20:26:17.394Z,43.04
2019-04-10T20:28:48.435Z,42.28
2019-04-10T20:31:25.551Z,43.76
2019-04-10T20:33:56.902Z,45.55
2019-04-10T20:36:29.099Z,43.87
2019-04-10T20:39:01.047Z,42.91
2019-04-10T20:41:46.035Z,43.13
2019-04-10T20:44:07.282Z,45.07
2019-04-10T20:46:39.456Z,41.31
2019-04-10T20:49:10.455Z,46.13
2019-04-10T20:51:42.017Z,47.67
2019-04-10T20:54:13.278Z,47.47
2019-04-10T20:56:44.466Z,42.92
2019-04-10T20:59:15.635Z,40.16
2019-04-10T21:01:47.014Z,46.66
2019-04-10T21:04:18.093Z,45.55
2019-04-10T21:06:50.144Z,45.70
2019-04-10T21:09:21.642Z,43.08
2019-04-10T21:12:02.041Z,44.99
2019-04-10T21:14:25.476Z,45.44
2019-04-10T21:16:56.790Z,46.27
2019-04-10T21:19:31.566Z,47.52
2019-04-10T21:22:03.799Z,44.37
2019-04-10T21:24:35.750Z,42.39
2019-04-10T21:27:07.158Z,46.72
2019-04-10T21:29:57.052Z,45.11
2019-04-10T21:32:50.003Z,42.35
2019-04-10T21:35:27.104Z,46.43
2019-04-10T21:37:59.127Z,44.22
2019-04-10T21:40:30.649Z,42.72
2019-04-10T21:43:01.670Z,46.92
2019-04-10T21:45:33.341Z,46.92
2019-04-10T21:48:06.393Z,45.69
2019-04-10T21:50:37.798Z,43.24
2019-04-10T21:53:08.648Z,43.63
2019-04-10T21:55:39.846Z,45.79
2019-04-10T21:58:12.928Z,45.36
2019-04-10T22:01:01.401Z,46.25
2019-04-10T22:03:34.273Z,42.83
2019-04-10T22:06:15.159Z,44.72
2019-04-10T22:08:52.030Z,46.89
2019-04-10T22:11:23.598Z,44.00
2019-04-10T22:13:54.851Z,47.93
2019-04-10T22:16:26.257Z,43.56
2019-04-10T22:18:58.185Z,47.56
2019-04-10T22:21:29.178Z,47.92
2019-04-10T22:24:00.961Z,45.63
2019-04-10T22:26:32.148Z,47.95
2019-04-10T22:29:03.619Z,49.17
2019-04-10T22:31:36.020Z,46.61
2019-04-10T22:34:07.400Z,45.34
2019-04-10T22:36:39.427Z,46.82
2019-04-10T22:39:14.606Z,43.87
2019-04-10T22:41:46.225Z,47.24
2019-04-10T22:44:17.617Z,48.62
2019-04-10T22:46:48.626Z,48.35
2019-04-10T22:49:20.231Z,46.31
2019-04-10T22:51:51.804Z,47.68
2019-04-10T22:54:23.008Z,46.63
2019-04-10T22:56:54.459Z,46.48
2019-04-10T22:59:26.303Z,49.43
2019-04-10T23:02:03.390Z,47.03
2019-04-10T23:04:30.768Z,48.39
2019-04-10T23:07:01.854Z,47.35
2019-04-10T23:09:33.124Z,47.49
2019-04-10T23:12:07.842Z,46.34
2019-04-10T23:14:38.786Z,48.19
2019-04-10T23:17:10.715Z,46.85
2019-04-10T23:19:42.502Z,48.13
2019-04-10T23:22:14.923Z,47.30
2019-04-10T23:24:46.090Z,45.93
2019-04-10T23:27:17.716Z,49.20
2019-04-10T23:29:48.878Z,45.76
2019-04-10T23:32:20.117Z,46.76
2019-04-10T23:34:51.025Z,49.15
2019-04-10T23:37:22.571Z,44.99
2019-04-10T23:39:54.521Z,49.03
2019-04-10T23:42:25.872Z,47.57
2019-04-10T23:44:57.501Z,47.68
2019-04-10T23:47:28.606Z,45.76
2019-04-10T23:49:59.775Z,45.07
2019-04-10T23:52:31.840Z,47.19
2019-04-10T23:55:03.980Z,47.66
2019-04-10T23:57:35.684Z,47.21
